Time;durP1;ratioP1;P1;durP2;ratioP2;P2;SDS_P1;SDS_P2;PMS_P1;PMS_P2;Temp;Humidity;BMP_temperature;BMP_pressure;BME280_temperature;BME280_humidity;BME280_pressure;Samples;Min_cycle;Max_cycle;Signal;HPM_P1;HPM_P2
2024/03/14 00:00:29;;;;;;;7.13;5.00;;;10.90;99.90;;;;;;5110305;27;20123;-68
2024/03/14 00:02:57;;;;;;;5.30;4.60;;;10.80;99.90;;;;;;5112872;27;20509;-67
2024/03/14 00:05:22;;;;;;;7.63;4.85;;;10.80;99.90;;;;;;5129138;27;20027;-67
2024/03/14 00:07:48;;;;;;;9.30;5.00;;;10.80;99.90;;;;;;5110328;27;20460;-67
2024/03/14 00:10:14;;;;;;;6.80;5.35;;;10.80;99.90;;;;;;5113656;27;20043;-67
2024/03/14 00:12:40;;;;;;;6.32;4.93;;;10.80;99.90;;;;;;5113870;27;20039;-67
2024/03/14 00:15:06;;;;;;;5.32;4.88;;;10.80;99.90;;;;;;5109926;27;20050;-67
2024/03/14 00:17:33;;;;;;;5.60;4.95;;;10.70;99.90;;;;;;5144115;27;20050;-67
2024/03/14 00:20:00;;;;;;;5.97;4.53;;;10.80;99.90;;;;;;5132251;27;20050;-68
2024/03/14 00:22:26;;;;;;;4.75;4.22;;;10.80;99.90;;;;;;5148296;27;20043;-68
2024/03/14 00:24:52;;;;;;;6.85;4.43;;;10.80;99.90;;;;;;5116657;27;20656;-68
2024/03/14 00:27:18;;;;;;;8.00;5.22;;;10.70;99.90;;;;;;5122786;27;20035;-68
2024/03/14 00:29:45;;;;;;;5.45;4.70;;;10.70;99.90;;;;;;5130863;27;20050;-68
2024/03/14 00:32:11;;;;;;;9.95;5.38;;;10.80;99.90;;;;;;5120323;27;20035;-68
2024/03/14 00:34:37;;;;;;;5.85;4.60;;;10.70;99.90;;;;;;5133449;27;20090;-67
2024/03/14 00:37:02;;;;;;;6.55;4.97;;;10.80;99.90;;;;;;5127146;27;20069;-67
2024/03/14 00:39:28;;;;;;;5.63;4.93;;;10.70;99.90;;;;;;5146326;27;20486;-67
2024/03/14 00:41:54;;;;;;;7.32;4.68;;;10.70;99.90;;;;;;5114068;27;20036;-67
2024/03/14 00:44:19;;;;;;;8.13;4.97;;;10.60;99.90;;;;;;5127229;27;20035;-67
2024/03/14 00:46:45;;;;;;;5.63;4.45;;;10.70;99.90;;;;;;5113082;27;20046;-67
2024/03/14 00:49:11;;;;;;;5.60;4.45;;;10.60;99.90;;;;;;5128784;27;20400;-67
2024/03/14 00:51:37;;;;;;;7.65;4.63;;;10.60;99.90;;;;;;5113730;27;20627;-67
2024/03/14 00:54:04;;;;;;;6.70;4.68;;;10.60;99.90;;;;;;5135090;27;20046;-67
2024/03/14 00:56:30;;;;;;;5.53;5.03;;;10.70;99.90;;;;;;5112249;27;20035;-68
2024/03/14 00:58:56;;;;;;;7.53;4.55;;;10.70;99.90;;;;;;5113489;27;20039;-68
2024/03/14 01:01:24;;;;;;;5.70;5.10;;;10.60;99.90;;;;;;5145281;27;20050;-67
2024/03/14 01:03:54;;;;;;;6.43;5.07;;;10.60;99.90;;;;;;5109832;27;20051;-67
2024/03/14 01:06:21;;;;;;;5.25;4.70;;;10.60;99.90;;;;;;5113698;27;20035;-67
2024/03/14 01:08:48;;;;;;;6.00;4.65;;;10.60;99.90;;;;;;5113859;27;20035;-67
2024/03/14 01:11:18;;;;;;;7.70;5.90;;;10.60;99.90;;;;;;5128179;27;20039;-68
2024/03/14 01:13:44;;;;;;;7.93;4.68;;;10.60;99.90;;;;;;5133836;27;20039;-67
2024/03/14 01:16:10;;;;;;;6.72;5.32;;;10.60;99.90;;;;;;5108887;27;20096;-67
2024/03/14 01:18:36;;;;;;;7.72;5.20;;;10.60;99.90;;;;;;5114398;27;20046;-68
2024/03/14 01:21:02;;;;;;;7.38;5.22;;;10.60;99.90;;;;;;5142446;27;20044;-67
2024/03/14 01:23:27;;;;;;;7.10;6.10;;;10.50;99.90;;;;;;5120956;27;20488;-67
2024/03/14 01:25:53;;;;;;;6.68;5.78;;;10.50;99.90;;;;;;5132889;27;20073;-67
2024/03/14 01:28:19;;;;;;;6.70;5.80;;;10.60;99.90;;;;;;5147469;27;20043;-67
2024/03/14 01:30:45;;;;;;;5.95;5.40;;;10.40;99.90;;;;;;5109734;27;20044;-67
2024/03/14 01:33:11;;;;;;;6.78;6.07;;;10.40;99.90;;;;;;5129737;27;20047;-67
2024/03/14 01:35:36;;;;;;;9.25;6.80;;;10.70;99.90;;;;;;5131560;27;20031;-67
2024/03/14 01:38:02;;;;;;;7.25;6.40;;;10.30;99.90;;;;;;5110122;27;20063;-67
2024/03/14 01:40:28;;;;;;;8.85;6.78;;;10.30;99.90;;;;;;5114834;27;20046;-67
2024/03/14 01:42:55;;;;;;;8.25;7.45;;;10.30;99.90;;;;;;5116495;27;20051;-67
2024/03/14 01:45:21;;;;;;;9.85;7.85;;;10.10;99.90;;;;;;5127578;27;20041;-67
2024/03/14 01:47:48;;;;;;;9.18;6.78;;;10.20;99.90;;;;;;5111368;27;20125;-67
2024/03/14 01:50:14;;;;;;;8.88;7.97;;;10.10;99.90;;;;;;5124867;27;20477;-67
2024/03/14 01:52:40;;;;;;;8.75;7.88;;;10.10;99.90;;;;;;5145408;27;20058;-67
2024/03/14 01:55:09;;;;;;;8.68;7.88;;;10.10;99.90;;;;;;5116682;27;20050;-67
2024/03/14 01:57:35;;;;;;;9.85;8.77;;;10.10;99.90;;;;;;5115649;27;20043;-67
2024/03/14 02:00:04;;;;;;;9.05;8.10;;;10.10;99.90;;;;;;5128708;27;20122;-68
2024/03/14 02:02:32;;;;;;;9.95;8.10;;;10.00;99.90;;;;;;5116588;27;20042;-67
2024/03/14 02:05:18;;;;;;;11.68;9.32;;;10.00;99.90;;;;;;5143832;27;20592;-67
2024/03/14 02:07:45;;;;;;;9.52;8.63;;;10.00;99.90;;;;;;5109680;27;20139;-67
2024/03/14 02:10:14;;;;;;;9.98;9.07;;;10.00;99.90;;;;;;5133355;27;20042;-67
2024/03/14 02:12:40;;;;;;;10.43;8.52;;;9.90;99.90;;;;;;5112225;27;20480;-68
2024/03/14 02:15:06;;;;;;;9.60;8.27;;;9.90;99.90;;;;;;5128572;27;20036;-67
2024/03/14 02:17:33;;;;;;;10.75;9.75;;;9.90;99.90;;;;;;5124521;27;20477;-67
2024/03/14 02:19:58;;;;;;;11.07;9.85;;;9.90;99.90;;;;;;5147152;27;20050;-67
2024/03/14 02:22:24;;;;;;;9.57;8.68;;;9.90;99.90;;;;;;5110410;27;20044;-67
2024/03/14 02:24:51;;;;;;;9.95;9.02;;;9.90;99.90;;;;;;5147469;27;20035;-67
2024/03/14 02:27:17;;;;;;;9.70;8.75;;;9.80;99.90;;;;;;5112076;27;20035;-67
2024/03/14 02:29:43;;;;;;;9.50;8.50;;;9.90;99.90;;;;;;5126533;27;20088;-67
2024/03/14 02:32:09;;;;;;;10.45;9.35;;;9.80;99.90;;;;;;5107083;27;20042;-67
2024/03/14 02:34:35;;;;;;;10.13;9.23;;;9.80;99.90;;;;;;5113692;27;20031;-67
2024/03/14 02:37:01;;;;;;;10.35;9.35;;;9.80;99.90;;;;;;5125572;27;20553;-67
2024/03/14 02:39:29;;;;;;;10.57;9.48;;;9.80;99.90;;;;;;5128504;27;20039;-67
2024/03/14 02:41:56;;;;;;;11.40;10.18;;;9.90;99.90;;;;;;5146760;27;20058;-67
2024/03/14 02:44:24;;;;;;;12.43;11.20;;;9.80;99.90;;;;;;5129285;27;20035;-67
2024/03/14 02:46:52;;;;;;;11.13;9.98;;;9.80;99.90;;;;;;5111031;27;20142;-67
2024/03/14 02:49:20;;;;;;;11.35;10.35;;;9.80;99.90;;;;;;5113173;27;20130;-68
2024/03/14 02:51:46;;;;;;;11.63;10.60;;;9.80;99.90;;;;;;5130266;27;20117;-67
2024/03/14 02:54:15;;;;;;;11.73;10.63;;;9.80;99.90;;;;;;5110310;27;20807;-67
2024/03/14 02:56:42;;;;;;;12.18;10.98;;;9.80;99.90;;;;;;5146356;27;20070;-68
2024/03/14 02:59:10;;;;;;;12.43;11.13;;;9.80;99.90;;;;;;5111886;27;20102;-67
2024/03/14 03:01:37;;;;;;;12.20;11.00;;;9.80;99.90;;;;;;5138689;27;20047;-67
2024/03/14 03:04:03;;;;;;;12.15;10.93;;;9.80;99.90;;;;;;5123263;27;20442;-67
2024/03/14 03:06:30;;;;;;;12.15;10.95;;;9.70;99.90;;;;;;5130022;27;20035;-68
2024/03/14 03:08:57;;;;;;;12.45;11.13;;;9.70;99.90;;;;;;5108493;27;20044;-67
2024/03/14 03:11:23;;;;;;;12.80;11.20;;;9.80;99.90;;;;;;5143073;27;20044;-67
2024/03/14 03:13:49;;;;;;;12.82;11.73;;;9.70;99.90;;;;;;5148366;27;20058;-67
2024/03/14 03:16:14;;;;;;;13.05;11.65;;;9.80;99.90;;;;;;5125266;27;20035;-67
2024/03/14 03:18:40;;;;;;;13.13;11.85;;;9.70;99.90;;;;;;5141014;27;20035;-67
2024/03/14 03:21:06;;;;;;;13.18;11.90;;;9.70;99.90;;;;;;5145484;27;20050;-67
2024/03/14 03:23:32;;;;;;;13.07;11.88;;;9.80;99.90;;;;;;5133995;27;20084;-67
2024/03/14 03:25:57;;;;;;;13.25;11.95;;;9.80;99.90;;;;;;5125566;27;20055;-67
2024/03/14 03:28:23;;;;;;;11.75;10.55;;;9.70;99.90;;;;;;5108252;27;20169;-67
2024/03/14 03:30:49;;;;;;;12.05;10.80;;;9.80;99.90;;;;;;5142687;27;20046;-67
2024/03/14 03:33:20;;;;;;;13.25;12.05;;;9.80;99.90;;;;;;5128884;27;20039;-67
2024/03/14 03:35:45;;;;;;;11.82;10.73;;;9.70;99.90;;;;;;5127684;27;20063;-67
2024/03/14 03:38:13;;;;;;;11.70;10.57;;;9.80;99.90;;;;;;5110150;27;20115;-68
2024/03/14 03:40:40;;;;;;;13.07;11.88;;;9.70;99.90;;;;;;5109172;27;20058;-67
2024/03/14 03:43:08;;;;;;;11.45;10.38;;;9.70;99.90;;;;;;5105488;27;20039;-67
2024/03/14 03:45:34;;;;;;;11.98;10.77;;;9.70;99.90;;;;;;5117587;27;20050;-67
2024/03/14 03:48:00;;;;;;;11.40;10.25;;;9.70;99.90;;;;;;5085753;28;20036;-67
2024/03/14 03:50:27;;;;;;;11.23;10.20;;;9.70;99.90;;;;;;5112172;27;20043;-67
2024/03/14 03:52:53;;;;;;;10.90;9.90;;;9.70;99.90;;;;;;5111727;27;20039;-68
2024/03/14 03:55:19;;;;;;;11.95;10.57;;;9.60;99.90;;;;;;5096462;28;20126;-67
2024/03/14 03:57:46;;;;;;;11.25;10.25;;;9.70;99.90;;;;;;5094040;27;20043;-67
2024/03/14 04:02:57;;;;;;;12.30;10.98;;;9.60;99.90;;;;;;5111618;27;20051;-67
2024/03/14 04:05:25;;;;;;;11.18;10.07;;;9.60;99.90;;;;;;5129673;27;20048;-67
2024/03/14 04:07:52;;;;;;;11.75;10.60;;;9.50;99.90;;;;;;5108648;27;20507;-67
2024/03/14 04:10:17;;;;;;;11.02;10.02;;;9.50;99.90;;;;;;5097314;27;20036;-67
2024/03/14 04:12:44;;;;;;;11.55;10.55;;;9.50;99.90;;;;;;5100144;27;20508;-67
2024/03/14 04:15:10;;;;;;;12.13;9.90;;;9.50;99.90;;;;;;5104832;27;20110;-67
2024/03/14 04:17:36;;;;;;;13.05;10.38;;;9.40;99.90;;;;;;5096968;28;20437;-67
2024/03/14 04:20:10;;;;;;;11.02;10.00;;;9.50;99.90;;;;;;5125492;27;20678;-67
2024/03/14 04:22:37;;;;;;;10.63;9.68;;;9.40;99.90;;;;;;5111464;27;20088;-67
2024/03/14 04:25:03;;;;;;;11.13;10.13;;;9.40;99.90;;;;;;5108341;27;20047;-67
2024/03/14 04:27:29;;;;;;;11.77;10.43;;;9.40;99.90;;;;;;5095434;27;20484;-67
2024/03/14 04:29:55;;;;;;;10.48;9.48;;;9.40;99.90;;;;;;5110996;27;20096;-67
2024/03/14 04:32:20;;;;;;;11.13;10.10;;;9.40;99.90;;;;;;5088900;28;20047;-67
2024/03/14 04:34:47;;;;;;;10.65;9.70;;;9.40;99.90;;;;;;5127474;27;20055;-67
2024/03/14 04:37:14;;;;;;;10.50;9.52;;;9.40;99.90;;;;;;5092467;27;20038;-67
2024/03/14 04:39:40;;;;;;;11.15;10.02;;;9.30;99.90;;;;;;5109834;27;20039;-67
2024/03/14 04:42:07;;;;;;;10.18;9.27;;;9.30;99.90;;;;;;5114541;27;20036;-67
2024/03/14 04:44:35;;;;;;;9.82;8.93;;;9.30;99.90;;;;;;5097818;27;20100;-67
2024/03/14 04:47:03;;;;;;;9.35;8.50;;;9.30;99.90;;;;;;5115191;27;20043;-67
2024/03/14 04:49:31;;;;;;;10.40;9.25;;;9.30;99.90;;;;;;5130626;27;20031;-68
2024/03/14 04:51:57;;;;;;;10.88;9.55;;;9.20;99.90;;;;;;5146817;27;20071;-67
2024/03/14 04:54:24;;;;;;;10.02;9.07;;;9.30;99.90;;;;;;5110422;27;20130;-67
2024/03/14 04:56:50;;;;;;;9.60;8.70;;;9.30;99.90;;;;;;5111828;27;20082;-67
2024/03/14 04:59:15;;;;;;;10.27;9.27;;;9.20;99.90;;;;;;5129792;27;20078;-67
2024/03/14 05:01:42;;;;;;;9.43;8.48;;;9.20;99.90;;;;;;5124267;27;20118;-67
2024/03/14 05:04:08;;;;;;;10.18;9.13;;;9.20;99.90;;;;;;5145008;27;20402;-68
2024/03/14 05:06:33;;;;;;;9.98;9.07;;;9.20;99.90;;;;;;5130360;27;20052;-67
2024/03/14 05:09:00;;;;;;;9.75;8.82;;;9.10;99.90;;;;;;5143323;27;20114;-67
2024/03/14 05:11:25;;;;;;;9.68;8.77;;;9.00;99.90;;;;;;5112441;27;20504;-68
2024/03/14 05:13:56;;;;;;;9.90;8.43;;;9.10;99.90;;;;;;5111865;27;20059;-67
2024/03/14 05:16:26;;;;;;;9.90;9.02;;;9.10;99.90;;;;;;5130452;27;20415;-67
2024/03/14 05:18:52;;;;;;;10.02;8.93;;;9.00;99.90;;;;;;5142266;27;20121;-67
2024/03/14 05:21:17;;;;;;;9.32;8.52;;;9.00;99.90;;;;;;5124501;27;20150;-67
2024/03/14 05:23:43;;;;;;;9.27;8.38;;;9.00;99.90;;;;;;5125982;27;20032;-67
2024/03/14 05:26:10;;;;;;;9.90;8.80;;;9.00;99.90;;;;;;5130925;27;20108;-67
2024/03/14 05:28:36;;;;;;;9.60;8.60;;;9.00;99.90;;;;;;5125181;27;20381;-67
2024/03/14 05:31:02;;;;;;;9.45;8.52;;;9.00;99.90;;;;;;5104924;27;20039;-67
2024/03/14 05:33:28;;;;;;;9.43;8.48;;;9.00;99.90;;;;;;5104466;27;20035;-67
2024/03/14 05:35:54;;;;;;;9.18;8.38;;;8.90;99.90;;;;;;5102197;27;20151;-67
2024/03/14 05:38:20;;;;;;;9.75;8.48;;;9.00;99.90;;;;;;5140296;27;20039;-67
2024/03/14 05:40:46;;;;;;;10.10;9.18;;;9.00;99.90;;;;;;5112675;27;20067;-67
2024/03/14 05:43:12;;;;;;;9.55;8.75;;;9.00;99.90;;;;;;5110179;27;20066;-65
2024/03/14 05:45:37;;;;;;;11.57;9.02;;;9.00;99.90;;;;;;5131440;27;20639;-64
2024/03/14 05:48:13;;;;;;;10.38;9.48;;;9.00;99.90;;;;;;5122118;27;20071;-67
2024/03/14 05:50:39;;;;;;;10.02;9.07;;;9.00;99.90;;;;;;5136076;27;20056;-67
2024/03/14 05:53:05;;;;;;;10.90;9.38;;;9.00;99.90;;;;;;5120662;27;20050;-67
2024/03/14 05:55:31;;;;;;;9.07;8.18;;;9.00;99.90;;;;;;5124806;27;20033;-67
2024/03/14 05:57:56;;;;;;;10.70;9.80;;;9.00;99.90;;;;;;5111971;27;20075;-67
2024/03/14 06:00:23;;;;;;;10.52;9.52;;;9.00;99.90;;;;;;5112603;27;20129;-67
2024/03/14 06:02:48;;;;;;;11.27;10.25;;;9.00;99.90;;;;;;5105860;27;20039;-67
2024/03/14 06:05:17;;;;;;;10.43;9.43;;;9.00;99.90;;;;;;5122679;27;20035;-67
2024/03/14 06:07:42;;;;;;;11.30;10.15;;;9.00;99.90;;;;;;5104056;27;20122;-67
2024/03/14 06:10:12;;;;;;;10.70;9.70;;;9.00;99.90;;;;;;5127527;27;20126;-67
2024/03/14 06:12:38;;;;;;;10.30;9.35;;;9.00;99.90;;;;;;5109340;27;20046;-67
2024/03/14 06:15:05;;;;;;;12.27;10.25;;;9.00;99.90;;;;;;5123452;27;20042;-67
2024/03/14 06:17:32;;;;;;;10.25;9.35;;;9.00;99.90;;;;;;5110233;27;20096;-67
2024/03/14 06:19:57;;;;;;;11.32;9.45;;;9.10;99.90;;;;;;5095133;27;20058;-67
2024/03/14 06:22:23;;;;;;;11.93;10.57;;;9.10;99.90;;;;;;5127394;27;20039;-67
2024/03/14 06:24:49;;;;;;;11.35;9.98;;;9.10;99.90;;;;;;5143540;27;20043;-67
2024/03/14 06:27:15;;;;;;;11.80;10.63;;;9.10;99.90;;;;;;5142433;27;20113;-67
2024/03/14 06:29:41;;;;;;;11.30;10.10;;;9.20;99.90;;;;;;5126114;27;20050;-67
2024/03/14 06:32:07;;;;;;;11.32;10.18;;;9.20;99.90;;;;;;5133360;27;20623;-66
2024/03/14 06:34:33;;;;;;;11.68;10.57;;;9.20;99.90;;;;;;5129756;27;20042;-67
2024/03/14 06:36:59;;;;;;;11.70;10.20;;;9.20;99.90;;;;;;5108545;27;20043;-67
2024/03/14 06:39:28;;;;;;;13.00;10.50;;;9.30;99.90;;;;;;5110468;27;20045;-66
2024/03/14 06:41:53;;;;;;;12.57;11.18;;;9.30;99.90;;;;;;5129643;27;20035;-67
2024/03/14 06:44:19;;;;;;;13.98;11.52;;;9.30;99.90;;;;;;5112816;27;20422;-67
2024/03/14 06:46:45;;;;;;;13.05;11.50;;;9.40;99.90;;;;;;5127343;27;20047;-67
2024/03/14 06:49:13;;;;;;;12.43;11.13;;;9.40;99.90;;;;;;5110820;27;20106;-67
2024/03/14 06:51:41;;;;;;;12.10;10.80;;;9.40;99.90;;;;;;5128197;27;20034;-67
2024/03/14 06:54:07;;;;;;;12.77;11.15;;;9.50;99.90;;;;;;5127533;27;20560;-67
2024/03/14 06:56:37;;;;;;;12.23;11.02;;;9.60;99.90;;;;;;5145046;27;20095;-67
2024/03/14 06:59:05;;;;;;;13.23;11.10;;;9.60;99.90;;;;;;5130458;27;20118;-67
2024/03/14 07:01:34;;;;;;;12.40;11.18;;;9.60;99.90;;;;;;5108552;27;20074;-67
2024/03/14 07:04:05;;;;;;;12.90;11.27;;;9.60;99.90;;;;;;5128319;27;20043;-67
2024/03/14 07:06:34;;;;;;;12.57;11.38;;;9.60;99.90;;;;;;5111724;27;20031;-67
2024/03/14 07:09:01;;;;;;;12.48;11.32;;;9.60;99.90;;;;;;5135304;27;20035;-66
2024/03/14 07:11:28;;;;;;;12.73;11.52;;;9.70;99.90;;;;;;5103610;27;20039;-67
2024/03/14 07:13:57;;;;;;;12.93;11.60;;;9.80;99.90;;;;;;5097271;27;20057;-67
2024/03/14 07:16:23;;;;;;;13.20;11.07;;;9.80;99.90;;;;;;5117618;27;20092;-67
2024/03/14 07:18:55;;;;;;;12.52;11.23;;;9.90;99.90;;;;;;5131185;27;20518;-67
2024/03/14 07:21:24;;;;;;;13.43;12.05;;;10.00;99.90;;;;;;5129233;27;20488;-67
2024/03/14 07:23:50;;;;;;;12.60;11.25;;;10.10;99.90;;;;;;5119850;27;20038;-67
2024/03/14 07:26:22;;;;;;;10.98;9.88;;;10.40;99.90;;;;;;5103338;27;20477;-67
2024/03/14 07:28:48;;;;;;;12.00;10.90;;;10.50;99.90;;;;;;5120934;27;20552;-67
2024/03/14 07:31:14;;;;;;;11.57;10.48;;;10.60;99.90;;;;;;5122357;27;20035;-67
2024/03/14 07:33:43;;;;;;;14.57;10.75;;;10.70;99.90;;;;;;5126814;27;20043;-67
2024/03/14 07:36:15;;;;;;;11.82;10.63;;;11.00;99.90;;;;;;5100204;27;20044;-67
2024/03/14 07:38:44;;;;;;;11.50;10.43;;;10.90;99.90;;;;;;5099795;27;20500;-67
2024/03/14 07:41:22;;;;;;;10.95;9.88;;;11.10;99.90;;;;;;5131021;27;20054;-67
2024/03/14 07:43:48;;;;;;;12.30;11.02;;;11.10;99.90;;;;;;5099043;27;20043;-67
2024/03/14 07:46:14;;;;;;;10.38;9.38;;;11.20;99.90;;;;;;5102666;27;20546;-67
2024/03/14 07:48:41;;;;;;;11.18;10.07;;;11.20;99.90;;;;;;5120225;27;20389;-67
2024/03/14 07:51:10;;;;;;;11.65;10.55;;;11.30;99.90;;;;;;5096888;27;20051;-67
2024/03/14 07:53:37;;;;;;;11.30;10.27;;;11.40;99.90;;;;;;5115810;27;20147;-67
2024/03/14 07:56:09;;;;;;;11.30;10.07;;;11.30;99.90;;;;;;5113828;27;20035;-66
2024/03/14 07:58:39;;;;;;;11.38;10.15;;;11.30;99.90;;;;;;5130190;27;21031;-67
2024/03/14 08:01:11;;;;;;;10.43;9.48;;;11.30;99.90;;;;;;5131706;27;20043;-67
2024/03/14 08:03:39;;;;;;;10.95;9.90;;;11.30;99.90;;;;;;5097957;27;20051;-67
2024/03/14 08:06:08;;;;;;;11.20;9.85;;;11.30;99.90;;;;;;5115492;27;20039;-67
2024/03/14 08:08:34;;;;;;;10.52;9.45;;;11.30;99.90;;;;;;5106920;27;20039;-67
2024/03/14 08:11:03;;;;;;;11.55;9.88;;;11.20;99.90;;;;;;5139361;27;20043;-67
2024/03/14 08:13:31;;;;;;;11.68;10.48;;;11.20;99.90;;;;;;5101153;27;20051;-67
2024/03/14 08:16:08;;;;;;;11.73;10.52;;;11.10;99.90;;;;;;5102761;27;20374;-67
2024/03/14 08:18:38;;;;;;;10.85;9.85;;;11.20;99.90;;;;;;5098630;27;20054;-67
2024/03/14 08:21:05;;;;;;;10.90;9.82;;;11.20;99.90;;;;;;5115718;27;20043;-67
2024/03/14 08:23:33;;;;;;;14.02;10.73;;;11.30;99.90;;;;;;5099383;27;20040;-67
2024/03/14 08:25:59;;;;;;;10.48;9.45;;;11.30;99.90;;;;;;5116058;27;20039;-67
2024/03/14 08:28:25;;;;;;;9.75;8.85;;;11.40;99.90;;;;;;5116668;27;20043;-67
2024/03/14 08:30:51;;;;;;;13.43;9.57;;;11.40;99.90;;;;;;5115259;27;21017;-67
2024/03/14 08:33:17;;;;;;;11.15;9.70;;;11.60;99.90;;;;;;5113923;27;20043;-67
2024/03/14 08:35:43;;;;;;;10.20;9.20;;;11.60;99.90;;;;;;5114482;27;20124;-67
2024/03/14 08:38:15;;;;;;;10.27;9.27;;;11.70;99.90;;;;;;5130508;27;20051;-67
2024/03/14 08:40:41;;;;;;;10.23;9.02;;;11.80;99.90;;;;;;5112324;27;20059;-67
2024/03/14 08:43:07;;;;;;;11.68;9.50;;;11.80;99.90;;;;;;5113670;27;20438;-67
2024/03/14 08:45:35;;;;;;;10.50;9.43;;;11.80;99.90;;;;;;5094821;27;20035;-67
2024/03/14 08:48:01;;;;;;;10.45;9.35;;;11.90;99.90;;;;;;5116908;27;20046;-67
2024/03/14 08:50:27;;;;;;;10.00;9.05;;;11.90;99.90;;;;;;5113967;27;20481;-67
2024/03/14 08:52:55;;;;;;;9.93;8.98;;;12.00;99.90;;;;;;5098910;27;20043;-67
2024/03/14 08:55:23;;;;;;;9.95;8.95;;;12.10;99.90;;;;;;5078394;27;20047;-67
2024/03/14 08:57:52;;;;;;;10.10;9.20;;;12.10;99.90;;;;;;5093797;27;20078;-67
2024/03/14 09:00:21;;;;;;;11.90;9.80;;;12.20;99.90;;;;;;5131845;27;20488;-67
2024/03/14 09:02:50;;;;;;;11.43;8.52;;;12.10;99.90;;;;;;5127630;27;20051;-67
2024/03/14 09:05:16;;;;;;;9.25;8.35;;;12.20;99.90;;;;;;5112794;27;20046;-67
2024/03/14 09:07:42;;;;;;;9.55;8.65;;;12.20;99.90;;;;;;5096855;27;20051;-67
2024/03/14 09:10:15;;;;;;;9.50;8.57;;;12.30;99.90;;;;;;5113221;27;20039;-67
2024/03/14 09:12:43;;;;;;;9.25;8.32;;;12.30;99.90;;;;;;5090766;27;20043;-67
2024/03/14 09:15:09;;;;;;;8.55;7.75;;;12.40;99.90;;;;;;5093870;27;20699;-67
2024/03/14 09:17:36;;;;;;;9.30;8.40;;;12.40;99.90;;;;;;5101063;27;20464;-67
2024/03/14 09:20:05;;;;;;;9.23;8.43;;;12.50;99.90;;;;;;5124762;27;20089;-67
2024/03/14 09:22:31;;;;;;;9.45;8.18;;;12.60;99.90;;;;;;5102155;27;20079;-67
2024/03/14 09:24:57;;;;;;;8.93;8.10;;;12.80;99.90;;;;;;5100000;27;20528;-67
2024/03/14 09:27:23;;;;;;;7.88;7.28;;;12.80;99.90;;;;;;5098954;27;21169;-67
2024/03/14 09:29:54;;;;;;;8.90;7.78;;;12.90;99.90;;;;;;5112948;27;20038;-67
2024/03/14 09:32:23;;;;;;;9.77;6.88;;;13.00;99.90;;;;;;5113470;27;20035;-67
2024/03/14 09:34:49;;;;;;;10.48;7.60;;;13.00;99.90;;;;;;5096207;27;20049;-67
2024/03/14 09:37:16;;;;;;;9.75;7.72;;;13.00;99.90;;;;;;5094187;27;20077;-67
2024/03/14 09:39:42;;;;;;;9.48;7.18;;;13.20;99.90;;;;;;5093719;27;20122;-67
2024/03/14 09:42:08;;;;;;;9.55;8.13;;;13.30;99.90;;;;;;5114295;27;20710;-67
2024/03/14 09:44:35;;;;;;;9.38;7.82;;;13.50;99.90;;;;;;5114443;27;20038;-67
2024/03/14 09:47:22;;;;;;;8.10;7.38;;;13.60;99.90;;;;;;5110002;27;20043;-67
2024/03/14 09:49:53;;;;;;;8.45;6.65;;;13.80;99.90;;;;;;5118673;27;20451;-67
2024/03/14 09:52:19;;;;;;;9.20;7.22;;;13.80;99.90;;;;;;5094929;27;20557;-67
2024/03/14 09:54:49;;;;;;;8.07;6.78;;;13.90;99.90;;;;;;5127299;27;20157;-67
2024/03/14 09:57:16;;;;;;;8.95;7.63;;;14.10;99.90;;;;;;5096802;27;20042;-67
2024/03/14 09:59:42;;;;;;;7.20;6.55;;;14.20;99.90;;;;;;5133738;27;20554;-67
2024/03/14 10:02:16;;;;;;;10.20;6.72;;;14.30;99.90;;;;;;5103765;27;20404;-67
2024/03/14 10:04:43;;;;;;;7.78;6.78;;;14.60;99.90;;;;;;5118674;27;20388;-67
2024/03/14 10:07:09;;;;;;;6.88;6.03;;;14.80;99.90;;;;;;5098532;27;20132;-67
2024/03/14 10:09:35;;;;;;;7.50;5.63;;;15.00;99.90;;;;;;5132273;27;20040;-67
2024/03/14 10:12:02;;;;;;;7.43;5.97;;;15.30;99.90;;;;;;5118936;27;20043;-67
2024/03/14 10:14:32;;;;;;;8.98;5.40;;;15.40;99.90;;;;;;5125729;27;20174;-67
2024/03/14 10:16:58;;;;;;;6.05;5.47;;;15.30;99.90;;;;;;5127016;27;20663;-67
2024/03/14 10:19:33;;;;;;;6.03;5.40;;;15.30;99.90;;;;;;5092942;27;20046;-67
2024/03/14 10:22:01;;;;;;;6.15;5.55;;;15.30;99.90;;;;;;5113536;27;20043;-67
2024/03/14 10:24:29;;;;;;;7.40;5.18;;;15.20;99.90;;;;;;5098124;27;20135;-67
2024/03/14 10:26:55;;;;;;;5.93;5.15;;;15.20;99.90;;;;;;5101519;27;20045;-67
2024/03/14 10:29:22;;;;;;;6.05;5.47;;;15.30;99.90;;;;;;5102730;27;20451;-67
2024/03/14 10:31:52;;;;;;;5.75;5.10;;;15.20;99.90;;;;;;5122440;27;20046;-67
2024/03/14 10:34:19;;;;;;;7.47;5.00;;;15.00;99.90;;;;;;5097497;27;20137;-67
2024/03/14 10:36:52;;;;;;;5.80;5.30;;;15.00;99.90;;;;;;5129365;27;20047;-67
2024/03/14 10:39:20;;;;;;;6.07;5.57;;;15.00;99.90;;;;;;5114817;27;20118;-67
2024/03/14 10:41:48;;;;;;;5.30;4.65;;;15.10;99.90;;;;;;5133760;27;20330;-67
2024/03/14 10:44:18;;;;;;;8.23;5.38;;;15.30;99.90;;;;;;5120610;27;20153;-66
2024/03/14 10:46:50;;;;;;;6.20;5.50;;;15.30;99.90;;;;;;5099210;27;20048;-67
2024/03/14 10:49:20;;;;;;;5.50;4.70;;;15.40;99.90;;;;;;5114078;27;20032;-67
2024/03/14 10:51:49;;;;;;;5.53;4.95;;;15.40;99.90;;;;;;5136852;27;20050;-67
2024/03/14 10:54:26;;;;;;;5.95;4.43;;;15.70;99.90;;;;;;5103976;27;20138;-67
2024/03/14 10:56:54;;;;;;;5.03;4.53;;;15.80;99.90;;;;;;5103166;27;20514;-67
2024/03/14 10:59:20;;;;;;;6.80;5.07;;;16.20;99.90;;;;;;5117064;27;20050;-67
2024/03/14 11:01:55;;;;;;;6.10;4.63;;;16.30;99.90;;;;;;5119342;27;20754;-67
2024/03/14 11:04:22;;;;;;;;;;;16.20;99.90;;;;;;5133690;27;20042;-67
2024/03/14 11:06:54;;;;;;;4.82;4.35;;;16.00;99.90;;;;;;5099701;27;19930;-67
2024/03/14 11:09:29;;;;;;;8.27;5.65;;;15.80;99.90;;;;;;5101223;27;20043;-67
2024/03/14 11:12:03;;;;;;;5.90;4.18;;;15.90;99.90;;;;;;5103436;27;20047;-67
2024/03/14 11:14:51;;;;;;;5.47;4.32;;;16.00;99.90;;;;;;5104892;27;20463;-67
2024/03/14 11:17:20;;;;;;;6.57;4.18;;;15.80;99.90;;;;;;5099110;27;20042;-67
2024/03/14 11:19:49;;;;;;;6.93;4.63;;;15.80;99.90;;;;;;5095431;28;20123;-67
2024/03/14 11:22:17;;;;;;;4.40;3.95;;;16.00;99.90;;;;;;5123495;27;20063;-67
2024/03/14 11:24:47;;;;;;;3.78;3.38;;;16.00;99.90;;;;;;5104093;27;20146;-67
2024/03/14 11:27:15;;;;;;;4.38;3.42;;;15.90;99.90;;;;;;5134271;27;20122;-67
2024/03/14 11:29:42;;;;;;;4.35;3.95;;;15.80;99.90;;;;;;5103842;27;20046;-67
2024/03/14 11:32:11;;;;;;;5.47;4.03;;;15.70;99.90;;;;;;5102418;27;20047;-67
2024/03/14 11:34:37;;;;;;;3.95;3.28;;;15.70;99.90;;;;;;5100807;27;20114;-67
2024/03/14 11:37:03;;;;;;;6.30;3.97;;;15.80;99.90;;;;;;5119627;27;20111;-67
2024/03/14 11:39:30;;;;;;;5.75;4.10;;;15.90;99.90;;;;;;5135432;27;20054;-67
2024/03/14 11:42:06;;;;;;;5.00;3.42;;;15.90;99.90;;;;;;5103655;27;20055;-67
2024/03/14 11:44:31;;;;;;;;;;;16.00;99.90;;;;;;5136062;27;20039;-67
2024/03/14 11:46:59;;;;;;;;;;;16.00;99.90;;;;;;5100568;27;19922;-67
2024/03/14 11:49:28;;;;;;;5.07;3.20;;;16.10;99.90;;;;;;5120837;27;19941;-67
2024/03/14 11:51:55;;;;;;;6.32;3.03;;;16.30;99.90;;;;;;5119776;27;20047;-67
2024/03/14 11:54:21;;;;;;;7.18;3.95;;;16.40;99.90;;;;;;5100157;27;20050;-67
2024/03/14 11:56:53;;;;;;;3.63;3.20;;;16.60;99.90;;;;;;5102056;27;20150;-67
2024/03/14 11:59:22;;;;;;;3.92;3.45;;;16.80;99.90;;;;;;5116833;27;20035;-67
2024/03/14 12:01:51;;;;;;;5.15;3.55;;;16.90;99.90;;;;;;5100311;27;20047;-67
2024/03/14 12:04:17;;;;;;;3.72;3.00;;;17.20;99.90;;;;;;5101442;27;20046;-67
2024/03/14 12:06:47;;;;;;;3.90;3.30;;;17.20;99.90;;;;;;5101711;27;20043;-67
2024/03/14 12:09:23;;;;;;;4.85;3.30;;;17.40;99.90;;;;;;5100373;27;20043;-67
2024/03/14 12:11:49;;;;;;;3.25;2.92;;;17.50;99.90;;;;;;5126236;27;20047;-67
2024/03/14 12:14:18;;;;;;;4.60;2.88;;;17.60;99.90;;;;;;5107498;27;20049;-67
2024/03/14 12:16:47;;;;;;;5.88;3.60;;;17.70;99.90;;;;;;5138477;27;20039;-67
2024/03/14 12:19:18;;;;;;;2.85;2.47;;;17.70;99.90;;;;;;5111819;27;20038;-67
2024/03/14 12:22:05;;;;;;;4.05;2.80;;;17.70;99.90;;;;;;5099614;27;20102;-67
2024/03/14 12:24:30;;;;;;;5.28;2.53;;;17.70;99.90;;;;;;5102650;27;20050;-67
2024/03/14 12:26:57;;;;;;;3.20;2.70;;;17.80;99.90;;;;;;5104455;27;20047;-67
2024/03/14 12:29:24;;;;;;;3.80;2.88;;;17.80;99.90;;;;;;5106597;27;20055;-67
2024/03/14 12:31:50;;;;;;;3.80;2.63;;;18.00;99.90;;;;;;5105462;27;20559;-67
2024/03/14 12:34:19;;;;;;;2.55;2.33;;;18.10;99.90;;;;;;5102174;27;20053;-67
2024/03/14 12:36:48;;;;;;;4.15;2.33;;;18.20;99.90;;;;;;5105511;27;20058;-68
2024/03/14 12:39:17;;;;;;;4.13;2.28;;;18.20;99.90;;;;;;5122450;27;20039;-67
2024/03/14 12:41:42;;;;;;;3.15;2.05;;;18.10;99.90;;;;;;5104849;27;20095;-67
2024/03/14 12:44:08;;;;;;;4.00;2.28;;;17.90;99.90;;;;;;5134361;27;20582;-67
2024/03/14 12:46:35;;;;;;;5.20;2.45;;;18.00;99.90;;;;;;5122207;27;20084;-67
2024/03/14 12:49:03;;;;;;;4.03;2.63;;;18.30;99.90;;;;;;5105279;27;20043;-67